Time;durP1;ratioP1;P1;durP2;ratioP2;P2;SDS_P1;SDS_P2;PMS_P1;PMS_P2;Temp;Humidity;BMP_temperature;BMP_pressure;BME280_temperature;BME280_humidity;BME280_pressure;Samples;Min_cycle;Max_cycle;Signal;HPM_P1;HPM_P2
2023/01/02 00:02:16;;;;;;;39.03;32.17;;;11.70;1.00;;;;;;5032706;28;20025;-62
2023/01/02 00:04:41;;;;;;;38.75;31.65;;;11.80;1.00;;;;;;5029346;28;20079;-62
2023/01/02 00:07:07;;;;;;;44.85;33.95;;;11.70;1.00;;;;;;5013518;28;20096;-62
2023/01/02 00:09:33;;;;;;;40.90;31.13;;;11.70;1.00;;;;;;5032458;28;20036;-62
2023/01/02 00:11:58;;;;;;;38.80;31.17;;;11.70;1.00;;;;;;5033415;28;20025;-62
2023/01/02 00:14:24;;;;;;;39.88;31.02;;;11.70;1.00;;;;;;5032781;28;20060;-62
2023/01/02 00:16:52;;;;;;;41.08;31.83;;;11.70;1.00;;;;;;5031648;28;20487;-62
2023/01/02 00:19:18;;;;;;;40.00;31.10;;;11.70;1.00;;;;;;5031256;28;20026;-62
2023/01/02 00:21:44;;;;;;;38.92;29.52;;;11.70;1.00;;;;;;5032811;28;20487;-62
2023/01/02 00:24:09;;;;;;;33.50;28.48;;;11.70;1.00;;;;;;5032421;28;20040;-62
2023/01/02 00:26:35;;;;;;;40.30;31.00;;;11.70;1.00;;;;;;5031662;28;20033;-61
2023/01/02 00:29:01;;;;;;;38.33;29.88;;;11.70;1.00;;;;;;5031161;28;20025;-62
2023/01/02 00:31:26;;;;;;;39.15;31.55;;;11.80;1.00;;;;;;5032686;28;20029;-62
2023/01/02 00:33:52;;;;;;;42.38;33.20;;;11.80;1.00;;;;;;5030091;28;20510;-62
2023/01/02 00:36:18;;;;;;;38.85;31.02;;;11.70;1.00;;;;;;5013171;28;20034;-62
2023/01/02 00:38:43;;;;;;;37.38;29.85;;;11.70;1.00;;;;;;5028282;28;20044;-62
2023/01/02 00:41:09;;;;;;;46.15;36.22;;;11.70;1.00;;;;;;5030292;28;20115;-62
2023/01/02 00:43:35;;;;;;;44.00;33.33;;;11.70;1.00;;;;;;5030963;28;20076;-62
2023/01/02 00:46:01;;;;;;;44.88;35.10;;;11.70;1.00;;;;;;5032775;28;20060;-62
2023/01/02 00:48:26;;;;;;;52.40;39.40;;;11.70;1.00;;;;;;5031814;28;20425;-62
2023/01/02 00:50:52;;;;;;;51.58;38.40;;;11.70;1.00;;;;;;5032410;28;20402;-62
2023/01/02 00:53:18;;;;;;;51.35;38.40;;;11.70;1.00;;;;;;5031295;28;20032;-62
2023/01/02 00:55:44;;;;;;;40.95;33.17;;;11.70;1.00;;;;;;5030718;28;20034;-62
2023/01/02 00:58:10;;;;;;;42.20;32.72;;;11.70;1.00;;;;;;5032285;28;20095;-62
2023/01/02 01:00:36;;;;;;;40.40;32.20;;;11.70;1.00;;;;;;5014919;28;20034;-62
2023/01/02 01:03:02;;;;;;;45.30;33.78;;;11.70;1.00;;;;;;5011134;28;20037;-62
2023/01/02 01:05:28;;;;;;;41.85;32.72;;;11.70;1.00;;;;;;5027878;28;20448;-62
2023/01/02 01:07:55;;;;;;;46.13;34.13;;;11.80;1.00;;;;;;5031947;28;20084;-62
2023/01/02 01:10:23;;;;;;;41.58;31.30;;;11.70;1.00;;;;;;5017513;28;20448;-62
2023/01/02 01:12:49;;;;;;;41.65;31.27;;;11.70;1.00;;;;;;5012389;28;20022;-62
2023/01/02 01:15:14;;;;;;;41.67;31.75;;;11.70;1.00;;;;;;5021760;28;20442;-62
2023/01/02 01:17:40;;;;;;;40.10;30.63;;;11.70;1.00;;;;;;5032145;28;20022;-62
2023/01/02 01:20:06;;;;;;;35.55;29.70;;;11.70;1.00;;;;;;5026642;28;20402;-62
2023/01/02 01:22:32;;;;;;;39.38;30.45;;;11.70;1.00;;;;;;5010869;28;20348;-62
2023/01/02 01:24:58;;;;;;;41.05;31.95;;;11.70;1.00;;;;;;5015487;28;20025;-62
2023/01/02 01:27:23;;;;;;;40.95;32.10;;;11.70;1.00;;;;;;5032024;28;20038;-62
2023/01/02 01:29:49;;;;;;;40.60;31.95;;;11.70;1.00;;;;;;5033914;28;20029;-62
2023/01/02 01:32:15;;;;;;;42.72;31.85;;;11.70;1.00;;;;;;5038869;28;20048;-62
2023/01/02 01:34:40;;;;;;;41.47;31.77;;;11.80;1.00;;;;;;5037015;28;20191;-62
2023/01/02 01:37:06;;;;;;;39.63;32.15;;;11.80;1.00;;;;;;5038626;28;20022;-62
2023/01/02 01:39:31;;;;;;;41.47;32.40;;;11.80;1.00;;;;;;5037981;28;20057;-62
2023/01/02 01:42:01;;;;;;;39.28;31.35;;;11.80;1.00;;;;;;5038360;28;20045;-62
2023/01/02 01:44:41;;;;;;;43.92;33.58;;;11.80;1.00;;;;;;5033385;28;20037;-62
2023/01/02 01:47:35;;;;;;;43.22;33.70;;;11.80;1.00;;;;;;5018693;28;20553;-62
2023/01/02 01:50:40;;;;;;;40.70;32.88;;;11.80;1.00;;;;;;5033363;28;20136;-62
2023/01/02 01:53:12;;;;;;;41.47;32.63;;;11.80;1.00;;;;;;5037939;28;20029;-62
2023/01/02 01:55:45;;;;;;;37.35;31.10;;;11.90;1.00;;;;;;5038017;28;20030;-62
2023/01/02 01:58:16;;;;;;;39.92;31.77;;;11.80;1.00;;;;;;5038505;28;20437;-62
2023/01/02 02:00:42;;;;;;;44.08;35.13;;;11.80;1.00;;;;;;5036359;28;20041;-62
2023/01/02 02:03:12;;;;;;;43.17;33.50;;;11.90;1.00;;;;;;5036572;28;20038;-62
2023/01/02 02:05:40;;;;;;;40.65;31.80;;;11.90;1.00;;;;;;5023542;28;20065;-62
2023/01/02 02:08:14;;;;;;;41.45;32.28;;;11.80;1.00;;;;;;5018551;28;20026;-62
2023/01/02 02:10:40;;;;;;;45.72;34.97;;;11.80;1.00;;;;;;5019269;28;20030;-61
2023/01/02 02:13:06;;;;;;;42.25;32.88;;;11.80;1.00;;;;;;5018493;28;20018;-62
2023/01/02 02:15:55;;;;;;;40.35;31.65;;;11.90;1.00;;;;;;5019262;28;20022;-62
2023/01/02 02:19:15;;;;;;;43.83;33.58;;;11.80;1.00;;;;;;5017814;28;20498;-62
2023/01/02 02:22:11;;;;;;;47.65;35.85;;;11.80;1.00;;;;;;5015819;28;20068;-62
2023/01/02 02:25:00;;;;;;;52.05;38.83;;;11.70;1.00;;;;;;5018199;28;20187;-62
2023/01/02 02:27:26;;;;;;;46.53;36.15;;;11.80;1.00;;;;;;5018176;28;20547;-62
2023/01/02 02:30:10;;;;;;;51.85;39.40;;;11.80;1.00;;;;;;5018871;28;20069;-62
2023/01/02 02:33:11;;;;;;;53.43;39.67;;;11.80;1.00;;;;;;5017526;28;20064;-62
2023/01/02 02:35:52;;;;;;;54.30;39.45;;;11.80;1.00;;;;;;5016006;28;20806;-62
2023/01/02 02:38:30;;;;;;;50.70;37.65;;;11.80;1.00;;;;;;5017330;28;20503;-62
2023/01/02 02:41:15;;;;;;;58.20;41.75;;;11.80;1.00;;;;;;5014923;28;20049;-60
2023/01/02 02:43:47;;;;;;;54.47;39.65;;;11.70;1.00;;;;;;5014160;28;20119;-62
2023/01/02 02:46:27;;;;;;;55.38;39.70;;;11.80;1.00;;;;;;5014458;28;20484;-62
2023/01/02 02:49:24;;;;;;;55.75;40.40;;;11.80;1.00;;;;;;5013930;28;20417;-62
2023/01/02 02:52:03;;;;;;;48.60;36.33;;;11.70;1.00;;;;;;5006621;28;20042;-62
2023/01/02 02:54:49;;;;;;;50.42;37.45;;;11.80;1.00;;;;;;5017223;28;20030;-62
2023/01/02 02:57:16;;;;;;;45.22;34.30;;;11.80;1.00;;;;;;5012714;28;20391;-62
2023/01/02 02:59:42;;;;;;;45.33;34.58;;;11.80;1.00;;;;;;5016232;28;20424;-62
2023/01/02 03:02:13;;;;;;;53.83;36.55;;;11.70;1.00;;;;;;5033941;28;20119;-62
2023/01/02 03:04:39;;;;;;;45.35;35.25;;;11.80;1.00;;;;;;5031519;28;20033;-62
2023/01/02 03:07:26;;;;;;;47.45;35.15;;;11.80;1.00;;;;;;5013749;28;20080;-62
2023/01/02 03:09:55;;;;;;;56.70;41.53;;;11.80;1.00;;;;;;5014816;28;20030;-62
2023/01/02 03:12:39;;;;;;;54.75;40.88;;;11.70;1.00;;;;;;5013915;28;20033;-62
2023/01/02 03:15:27;;;;;;;56.78;40.50;;;11.80;1.00;;;;;;5030267;28;20043;-62
2023/01/02 03:18:14;;;;;;;55.78;40.15;;;11.80;1.00;;;;;;5033618;28;20360;-62
2023/01/02 03:20:44;;;;;;;56.58;39.72;;;11.80;1.00;;;;;;5015702;28;20514;-62
2023/01/02 03:23:19;;;;;;;54.47;38.95;;;11.80;1.00;;;;;;5013700;28;20045;-62
2023/01/02 03:25:46;;;;;;;55.08;39.17;;;11.80;1.00;;;;;;5013563;28;20087;-62
2023/01/02 03:28:31;;;;;;;57.88;40.92;;;11.80;1.00;;;;;;5013542;28;20108;-62
2023/01/02 03:30:58;;;;;;;;;;;11.80;1.00;;;;;;5014041;28;20021;-62
2023/01/02 03:33:27;;;;;;;60.40;42.15;;;11.70;1.00;;;;;;5012493;28;19905;-62
2023/01/02 03:35:58;;;;;;;58.90;40.72;;;11.70;1.00;;;;;;5014996;28;20083;-62
2023/01/02 03:38:28;;;;;;;58.65;41.17;;;11.80;1.00;;;;;;5013997;28;20034;-62
2023/01/02 03:41:06;;;;;;;55.08;39.15;;;11.80;1.00;;;;;;5014397;28;20032;-62
2023/01/02 03:43:37;;;;;;;56.97;41.88;;;11.80;1.00;;;;;;5013955;28;20045;-62
2023/01/02 03:46:16;;;;;;;56.10;41.10;;;11.80;1.00;;;;;;5029236;28;20030;-62
2023/01/02 03:48:50;;;;;;;57.15;43.63;;;11.70;1.00;;;;;;5015394;28;20025;-62
2023/01/02 03:51:16;;;;;;;65.87;44.50;;;11.80;1.00;;;;;;5013273;28;20030;-62
2023/01/02 03:53:42;;;;;;;73.03;46.38;;;11.70;1.00;;;;;;5013602;28;20298;-62
2023/01/02 03:56:26;;;;;;;62.85;44.10;;;11.70;1.00;;;;;;5029434;28;20455;-62
2023/01/02 03:59:05;;;;;;;66.25;46.10;;;11.70;1.00;;;;;;5031618;28;20097;-62
2023/01/02 04:01:53;;;;;;;65.43;44.38;;;11.80;1.00;;;;;;5031801;28;20120;-62
2023/01/02 04:04:37;;;;;;;59.75;42.35;;;11.80;1.00;;;;;;5013984;28;20133;-62
2023/01/02 04:07:09;;;;;;;69.60;47.33;;;11.70;1.00;;;;;;5013430;28;20052;-62
2023/01/02 04:09:37;;;;;;;65.18;44.67;;;11.80;1.00;;;;;;5019722;28;20493;-62
2023/01/02 04:12:09;;;;;;;66.70;45.22;;;11.80;1.00;;;;;;5032993;28;20064;-62
2023/01/02 04:14:46;;;;;;;63.47;44.08;;;11.70;1.00;;;;;;5030588;28;20482;-62
2023/01/02 04:17:16;;;;;;;66.30;45.17;;;11.80;1.00;;;;;;5033220;28;20057;-62
2023/01/02 04:19:47;;;;;;;67.45;45.03;;;11.80;1.00;;;;;;5017902;28;20548;-62
2023/01/02 04:22:22;;;;;;;67.75;46.10;;;11.80;1.00;;;;;;5013382;28;20427;-62
2023/01/02 04:24:51;;;;;;;;;;;11.80;1.00;;;;;;5027027;28;20094;-62
2023/01/02 04:27:32;;;;;;;72.57;44.35;;;11.70;1.00;;;;;;5032838;28;19909;-62
2023/01/02 04:29:58;;;;;;;67.25;42.80;;;11.70;1.00;;;;;;5017320;28;20030;-60
2023/01/02 04:32:32;;;;;;;67.90;43.15;;;11.70;1.00;;;;;;5013048;28;20067;-61
2023/01/02 04:34:59;;;;;;;73.47;45.15;;;11.80;1.00;;;;;;5013281;28;20037;-60
2023/01/02 04:37:37;;;;;;;71.95;45.13;;;11.70;1.00;;;;;;5012174;28;20026;-62
2023/01/02 04:40:27;;;;;;;66.85;43.97;;;11.80;1.00;;;;;;5027523;28;20030;-61
2023/01/02 04:42:54;;;;;;;64.32;42.40;;;11.80;1.00;;;;;;5032396;28;20069;-61
2023/01/02 04:45:20;;;;;;;65.78;41.58;;;11.80;1.00;;;;;;5019717;28;20050;-61
2023/01/02 04:47:54;;;;;;;61.00;41.78;;;11.80;1.00;;;;;;5012693;28;20133;-61
2023/01/02 04:50:20;;;;;;;;;;;11.80;1.00;;;;;;5025912;28;20040;-60
2023/01/02 04:52:45;;;;;;;59.28;37.63;;;11.70;1.00;;;;;;5032581;28;19905;-61
2023/01/02 04:55:11;;;;;;;56.45;36.08;;;11.80;1.00;;;;;;5030619;28;20418;-61
2023/01/02 04:57:37;;;;;;;59.17;33.28;;;11.80;1.00;;;;;;5032444;28;20029;-60
2023/01/02 05:00:05;;;;;;;54.65;32.80;;;11.80;1.00;;;;;;5020005;28;20391;-60
2023/01/02 05:02:35;;;;;;;59.00;35.85;;;11.70;1.00;;;;;;5010903;28;20030;-60
2023/01/02 05:05:00;;;;;;;48.08;31.50;;;11.80;1.00;;;;;;5022244;28;20160;-60
2023/01/02 05:07:26;;;;;;;52.92;32.67;;;11.80;1.00;;;;;;5032199;28;20026;-61
2023/01/02 05:09:52;;;;;;;47.65;30.25;;;11.70;1.00;;;;;;5030724;28;20087;-61
2023/01/02 05:12:17;;;;;;;35.38;23.50;;;11.70;1.00;;;;;;5032061;28;20100;-60
2023/01/02 05:14:43;;;;;;;34.75;23.58;;;11.80;1.00;;;;;;5013854;28;20162;-61
2023/01/02 05:17:09;;;;;;;36.80;24.13;;;11.80;1.00;;;;;;5011770;28;20026;-60
2023/01/02 05:19:34;;;;;;;33.20;22.90;;;11.70;1.00;;;;;;5012600;28;20025;-61
2023/01/02 05:24:44;;;;;;;36.03;23.15;;;11.70;1.00;;;;;;5021297;28;20234;-60
2023/01/02 05:27:10;;;;;;;37.45;23.95;;;11.80;1.00;;;;;;5031670;28;20427;-60
2023/01/02 05:29:35;;;;;;;33.40;22.35;;;11.80;1.00;;;;;;5024781;28;20033;-60
2023/01/02 05:32:01;;;;;;;32.08;20.92;;;11.80;1.00;;;;;;5012019;28;20030;-60
2023/01/02 05:34:26;;;;;;;31.55;20.95;;;11.70;1.00;;;;;;5013088;28;20148;-60
2023/01/02 05:36:52;;;;;;;30.58;20.77;;;11.80;1.00;;;;;;5012154;28;20022;-61
2023/01/02 05:39:18;;;;;;;33.03;22.70;;;11.80;1.00;;;;;;5026397;28;20041;-61
2023/01/02 05:41:43;;;;;;;31.23;21.90;;;11.80;1.00;;;;;;5031596;28;20403;-61
2023/01/02 05:44:10;;;;;;;38.88;23.75;;;11.80;1.00;;;;;;5017821;28;20125;-60
2023/01/02 05:46:37;;;;;;;34.50;23.90;;;11.80;1.00;;;;;;5012014;28;20030;-61
2023/01/02 05:49:07;;;;;;;30.33;21.50;;;11.80;1.00;;;;;;5038136;28;20035;-61
2023/01/02 05:51:32;;;;;;;34.60;21.70;;;11.80;1.00;;;;;;5032002;28;20025;-61
2023/01/02 05:53:59;;;;;;;31.08;20.20;;;11.80;1.00;;;;;;5030808;28;20041;-61
2023/01/02 05:56:26;;;;;;;34.80;22.88;;;11.80;1.00;;;;;;5031598;28;20053;-61
2023/01/02 05:58:52;;;;;;;31.50;21.15;;;11.80;1.00;;;;;;5030023;28;20041;-61
2023/01/02 06:01:26;;;;;;;31.98;22.30;;;11.80;1.00;;;;;;5031311;28;20017;-61
2023/01/02 06:03:54;;;;;;;33.53;23.13;;;11.70;1.00;;;;;;5028338;28;20072;-61
2023/01/02 06:06:25;;;;;;;31.83;22.15;;;11.80;1.00;;;;;;5011863;28;20538;-61
2023/01/02 06:08:51;;;;;;;29.35;21.40;;;11.80;1.00;;;;;;5012930;28;20041;-61
2023/01/02 06:11:26;;;;;;;35.40;23.15;;;11.90;1.00;;;;;;5012255;28;20095;-61
2023/01/02 06:13:53;;;;;;;31.80;21.77;;;11.90;1.00;;;;;;5025163;28;20056;-61
2023/01/02 06:16:19;;;;;;;36.78;22.85;;;11.80;1.00;;;;;;5034599;28;20025;-61
2023/01/02 06:18:45;;;;;;;30.63;21.63;;;11.90;1.00;;;;;;5023144;28;20069;-61
2023/01/02 06:21:13;;;;;;;30.67;21.35;;;11.90;1.00;;;;;;5015337;28;20033;-61
2023/01/02 06:23:39;;;;;;;32.58;22.63;;;11.90;1.00;;;;;;5015418;28;20030;-61
2023/01/02 06:26:09;;;;;;;34.22;23.08;;;11.90;1.00;;;;;;5035010;28;20021;-61
2023/01/02 06:28:35;;;;;;;34.42;23.40;;;11.80;1.00;;;;;;5034614;28;20030;-61
2023/01/02 06:31:06;;;;;;;33.40;23.80;;;11.80;1.00;;;;;;5034743;28;20021;-61
2023/01/02 06:33:32;;;;;;;33.95;23.45;;;11.90;1.00;;;;;;5035236;28;20021;-61
2023/01/02 06:35:59;;;;;;;34.85;24.63;;;11.80;1.00;;;;;;5016547;28;20042;-61
2023/01/02 06:38:25;;;;;;;38.92;23.92;;;11.80;1.00;;;;;;5015246;28;20072;-61
2023/01/02 06:40:53;;;;;;;35.90;24.23;;;11.80;1.00;;;;;;5015104;28;20034;-61
2023/01/02 06:43:18;;;;;;;48.53;31.55;;;11.80;1.00;;;;;;5014929;28;20050;-61
2023/01/02 06:45:44;;;;;;;44.95;28.08;;;11.70;1.00;;;;;;5016572;28;20448;-61
2023/01/02 06:48:09;;;;;;;35.03;25.27;;;11.80;1.00;;;;;;5013708;28;20476;-61
2023/01/02 06:50:35;;;;;;;40.78;28.25;;;11.70;1.00;;;;;;5015907;28;20224;-61
2023/01/02 06:53:01;;;;;;;43.97;29.27;;;11.80;1.00;;;;;;5014730;28;20037;-61
2023/01/02 06:55:27;;;;;;;43.78;29.40;;;11.80;1.00;;;;;;5029708;28;20038;-61
2023/01/02 06:57:58;;;;;;;42.88;29.42;;;11.90;1.00;;;;;;5034367;28;20112;-61
2023/01/02 07:00:23;;;;;;;43.58;29.15;;;11.90;1.00;;;;;;5019520;28;20383;-61
2023/01/02 07:02:49;;;;;;;42.25;28.00;;;11.80;1.00;;;;;;5016121;28;20155;-61
2023/01/02 07:05:14;;;;;;;43.13;29.02;;;11.90;1.00;;;;;;5029915;28;20496;-61
2023/01/02 07:07:40;;;;;;;33.40;23.70;;;11.80;1.00;;;;;;5015136;28;20030;-61
2023/01/02 07:10:06;;;;;;;34.70;23.83;;;11.90;1.00;;;;;;5014536;28;20045;-61
2023/01/02 07:12:36;;;;;;;34.45;22.27;;;11.90;1.00;;;;;;5014268;28;20109;-61
2023/01/02 07:15:04;;;;;;;31.10;22.55;;;11.90;1.00;;;;;;5034296;28;20079;-61
2023/01/02 07:17:30;;;;;;;36.25;23.15;;;11.90;1.00;;;;;;5030322;28;20029;-61
2023/01/02 07:19:56;;;;;;;38.95;24.90;;;11.90;1.00;;;;;;5034257;28;20026;-61
2023/01/02 07:22:21;;;;;;;38.78;23.58;;;12.00;1.00;;;;;;5024321;28;20084;-61
2023/01/02 07:24:47;;;;;;;41.40;28.00;;;12.00;1.00;;;;;;5014105;28;20415;-61
2023/01/02 07:27:13;;;;;;;41.28;27.98;;;12.00;1.00;;;;;;5021291;28;20134;-61
2023/01/02 07:29:38;;;;;;;47.97;32.28;;;11.90;1.00;;;;;;5025799;28;20142;-60
2023/01/02 07:32:04;;;;;;;42.33;30.00;;;11.90;1.00;;;;;;5013717;28;20030;-60
2023/01/02 07:34:30;;;;;;;47.15;31.10;;;11.90;1.00;;;;;;5021538;28;20093;-60
2023/01/02 07:36:55;;;;;;;52.90;35.22;;;11.90;1.00;;;;;;5033898;28;20025;-61
2023/01/02 07:39:22;;;;;;;50.47;33.05;;;11.90;1.00;;;;;;5019641;28;20030;-61
2023/01/02 07:41:48;;;;;;;47.50;31.75;;;12.00;1.00;;;;;;5013945;28;20050;-60
2023/01/02 07:44:14;;;;;;;54.55;34.40;;;12.00;1.00;;;;;;5018800;28;20395;-61
2023/01/02 07:46:39;;;;;;;49.60;32.65;;;12.00;1.00;;;;;;5032073;28;20040;-61
2023/01/02 07:49:05;;;;;;;51.33;34.30;;;12.00;1.00;;;;;;5033604;28;20068;-60
2023/01/02 07:51:31;;;;;;;48.72;33.95;;;12.00;1.00;;;;;;5031828;28;20061;-60
2023/01/02 07:53:57;;;;;;;52.13;34.33;;;12.00;1.00;;;;;;5033246;28;20313;-60
2023/01/02 07:56:24;;;;;;;44.38;30.35;;;12.00;1.00;;;;;;5022475;28;20176;-60
2023/01/02 07:58:50;;;;;;;49.53;33.88;;;12.00;1.00;;;;;;5014570;28;20484;-60
2023/01/02 08:01:16;;;;;;;51.85;34.15;;;12.00;1.00;;;;;;5012376;28;20427;-60
2023/01/02 08:03:42;;;;;;;52.33;34.28;;;12.00;1.00;;;;;;5013570;28;20045;-60
2023/01/02 08:06:13;;;;;;;56.80;35.78;;;12.00;1.00;;;;;;5013638;28;20030;-60
2023/01/02 08:08:39;;;;;;;54.92;35.72;;;12.00;1.00;;;;;;5013635;28;20026;-60
2023/01/02 08:11:07;;;;;;;55.88;35.60;;;12.00;1.00;;;;;;5014310;28;20029;-61
2023/01/02 08:13:33;;;;;;;48.70;33.17;;;12.00;1.00;;;;;;5014321;28;20030;-61
2023/01/02 08:16:07;;;;;;;60.85;37.67;;;12.00;1.00;;;;;;5013606;28;20050;-61
2023/01/02 08:18:33;;;;;;;53.85;35.40;;;11.90;1.00;;;;;;5013607;28;20081;-60
2023/01/02 08:20:59;;;;;;;54.63;36.13;;;11.90;1.00;;;;;;5013255;28;20022;-60
2023/01/02 08:23:25;;;;;;;51.25;34.75;;;12.00;1.00;;;;;;5020586;28;20091;-60
2023/01/02 08:25:51;;;;;;;53.58;35.50;;;11.90;1.00;;;;;;5032943;28;20025;-61
2023/01/02 08:28:16;;;;;;;57.17;36.45;;;11.90;1.00;;;;;;5025445;28;20333;-60
2023/01/02 08:30:42;;;;;;;52.83;34.70;;;12.00;1.00;;;;;;5013115;28;20026;-60
2023/01/02 08:33:08;;;;;;;59.17;38.47;;;11.90;1.00;;;;;;5020012;28;20026;-60
2023/01/02 08:35:34;;;;;;;55.28;35.30;;;12.00;1.00;;;;;;5033241;28;20037;-60
2023/01/02 08:37:59;;;;;;;55.88;37.72;;;12.00;1.00;;;;;;5025303;28;20026;-60
2023/01/02 08:40:25;;;;;;;53.50;35.78;;;12.00;1.00;;;;;;5013690;28;20084;-60
2023/01/02 08:42:52;;;;;;;64.93;39.63;;;12.00;1.00;;;;;;5012576;28;20118;-60
2023/01/02 08:45:17;;;;;;;59.60;36.75;;;12.10;1.00;;;;;;5026940;28;20099;-61
2023/01/02 08:47:43;;;;;;;53.28;35.30;;;12.00;1.00;;;;;;5032086;28;20471;-60
2023/01/02 08:50:08;;;;;;;65.60;39.17;;;12.10;1.00;;;;;;5019607;28;20038;-60
2023/01/02 08:52:34;;;;;;;60.35;38.22;;;12.10;1.00;;;;;;5013130;28;20102;-61
2023/01/02 08:55:02;;;;;;;56.50;37.17;;;12.10;1.00;;;;;;5013056;28;20034;-60
2023/01/02 08:57:28;;;;;;;59.80;37.10;;;12.00;1.00;;;;;;5011058;28;20021;-60
2023/01/02 08:59:53;;;;;;;65.82;39.13;;;12.10;1.00;;;;;;5012573;28;20452;-60
2023/01/02 09:02:19;;;;;;;67.75;37.88;;;12.00;1.00;;;;;;5012409;28;20026;-61
2023/01/02 09:04:45;;;;;;;65.43;37.95;;;12.10;1.00;;;;;;5012862;28;20096;-61
2023/01/02 09:07:11;;;;;;;67.82;40.53;;;12.10;1.00;;;;;;5010943;28;20484;-61
2023/01/02 09:09:36;;;;;;;62.80;38.25;;;12.00;1.00;;;;;;5018324;28;20025;-60
2023/01/02 09:12:02;;;;;;;55.03;36.60;;;12.10;1.00;;;;;;5027494;28;20564;-61
2023/01/02 09:14:28;;;;;;;60.53;36.75;;;12.10;1.00;;;;;;5011107;28;20037;-60
2023/01/02 09:16:53;;;;;;;65.18;39.05;;;12.10;1.00;;;;;;5010956;28;20120;-61
2023/01/02 09:19:19;;;;;;;53.50;35.47;;;12.10;1.00;;;;;;5021401;28;20451;-60
2023/01/02 09:21:45;;;;;;;60.97;36.92;;;12.10;1.00;;;;;;5031103;28;20060;-61
2023/01/02 09:24:11;;;;;;;63.33;39.33;;;12.10;1.00;;;;;;5029871;28;20044;-60
2023/01/02 09:26:37;;;;;;;69.28;42.30;;;12.10;1.00;;;;;;5030391;28;20112;-60
2023/01/02 09:29:03;;;;;;;66.38;41.35;;;12.10;1.00;;;;;;5026977;28;20090;-61
2023/01/02 09:31:48;;;;;;;55.90;38.65;;;12.20;1.00;;;;;;5012306;28;20034;-60
2023/01/02 09:34:13;;;;;;;63.67;39.15;;;12.20;1.00;;;;;;5025360;28;20035;-60
2023/01/02 09:36:39;;;;;;;55.33;37.22;;;12.10;1.00;;;;;;5047337;28;20033;-60
2023/01/02 09:39:05;;;;;;;61.72;39.63;;;12.10;1.00;;;;;;5031626;28;20460;-61
2023/01/02 09:41:51;;;;;;;55.78;36.90;;;12.10;1.00;;;;;;5029371;28;20132;-60
2023/01/02 09:44:30;;;;;;;59.08;36.95;;;12.20;1.00;;;;;;5013138;28;20033;-60
2023/01/02 09:47:02;;;;;;;59.00;37.15;;;12.10;1.00;;;;;;5012392;28;20037;-61
2023/01/02 09:49:38;;;;;;;58.65;37.33;;;12.10;1.00;;;;;;5012683;28;20065;-61
2023/01/02 09:52:07;;;;;;;55.55;36.40;;;12.20;1.00;;;;;;5015605;28;20030;-60
2023/01/02 09:54:33;;;;;;;58.10;37.58;;;12.10;1.00;;;;;;5023131;28;20025;-60
2023/01/02 09:57:33;;;;;;;54.35;36.55;;;12.10;1.00;;;;;;5035570;28;20061;-61
2023/01/02 10:00:17;;;;;;;57.30;37.22;;;12.20;1.00;;;;;;5022847;28;20124;-61
2023/01/02 10:03:13;;;;;;;52.78;35.03;;;12.30;1.00;;;;;;5015617;28;20531;-61
2023/01/02 10:05:56;;;;;;;47.92;32.75;;;12.30;1.00;;;;;;5017335;28;20026;-61
2023/01/02 10:09:01;;;;;;;49.90;35.28;;;12.30;1.00;;;;;;5015988;28;20049;-61
2023/01/02 10:11:32;;;;;;;55.65;34.60;;;12.30;1.00;;;;;;5015679;28;20037;-61
2023/01/02 10:14:16;;;;;;;55.15;36.03;;;12.30;1.00;;;;;;5015805;28;20059;-61
2023/01/02 10:16:57;;;;;;;51.88;35.47;;;12.30;1.00;;;;;;5015714;28;20085;-62
2023/01/02 10:19:35;;;;;;;52.20;34.38;;;12.30;1.00;;;;;;5017365;28;20120;-61
2023/01/02 10:22:03;;;;;;;47.88;34.72;;;12.30;1.00;;;;;;5034285;28;20112;-60
2023/01/02 10:24:44;;;;;;;60.35;37.90;;;12.30;1.00;;;;;;5025292;28;20065;-61
2023/01/02 10:27:25;;;;;;;60.25;38.63;;;12.10;1.00;;;;;;5036147;28;20048;-61
2023/01/02 10:30:16;;;;;;;58.88;38.00;;;12.30;1.00;;;;;;5036621;28;20037;-61
2023/01/02 10:32:46;;;;;;;55.03;36.72;;;12.30;1.00;;;;;;5035150;28;20017;-61
2023/01/02 10:35:33;;;;;;;56.80;36.97;;;12.30;1.00;;;;;;5036879;28;20029;-61
2023/01/02 10:38:00;;;;;;;54.67;35.30;;;12.20;1.00;;;;;;5036275;28;20032;-62
2023/01/02 10:40:27;;;;;;;55.78;37.17;;;12.40;1.00;;;;;;5038667;28;20258;-61
2023/01/02 10:42:56;;;;;;;55.72;37.47;;;12.30;1.00;;;;;;5037915;28;20068;-61
2023/01/02 10:45:22;;;;;;;54.92;34.67;;;12.30;1.00;;;;;;5042752;28;20029;-61
2023/01/02 10:47:48;;;;;;;52.45;34.80;;;12.30;1.00;;;;;;5038643;28;20084;-62
2023/01/02 10:50:19;;;;;;;52.45;35.08;;;12.30;1.00;;;;;;5039059;28;20057;-61
2023/01/02 10:53:06;;;;;;;51.88;34.40;;;12.40;1.00;;;;;;5040528;28;20040;-61
2023/01/02 10:55:43;;;;;;;54.22;35.22;;;12.30;1.00;;;;;;5042073;28;20083;-61
2023/01/02 10:58:28;;;;;;;50.05;35.17;;;12.30;1.00;;;;;;5038987;28;20018;-61
2023/01/02 11:01:12;;;;;;;53.85;35.45;;;12.40;1.00;;;;;;5038309;28;20395;-61
2023/01/02 11:03:38;;;;;;;51.65;33.90;;;12.40;1.00;;;;;;5036870;28;20048;-61
2023/01/02 11:06:16;;;;;;;52.55;33.80;;;12.40;1.00;;;;;;5043426;28;20583;-61
2023/01/02 11:08:42;;;;;;;49.10;34.60;;;12.40;1.00;;;;;;5035066;28;20572;-61
2023/01/02 11:11:16;;;;;;;47.38;33.70;;;12.40;1.00;;;;;;5038881;28;20146;-61
2023/01/02 11:13:58;;;;;;;54.85;35.70;;;12.40;1.00;;;;;;5038043;28;20029;-61
2023/01/02 11:16:25;;;;;;;48.75;34.33;;;12.40;1.00;;;;;;5035494;28;20057;-61
2023/01/02 11:19:00;;;;;;;51.85;35.72;;;12.40;1.00;;;;;;5036290;28;20112;-61
2023/01/02 11:21:33;;;;;;;50.92;34.20;;;12.40;1.00;;;;;;5039294;28;20033;-61
2023/01/02 11:24:14;;;;;;;51.42;35.15;;;12.50;1.00;;;;;;5033428;28;20045;-61
2023/01/02 11:26:42;;;;;;;53.55;34.85;;;12.50;1.00;;;;;;5034283;28;20044;-61
2023/01/02 11:29:32;;;;;;;54.30;36.35;;;12.40;1.00;;;;;;5041089;28;20074;-61
2023/01/02 11:32:03;;;;;;;53.30;36.42;;;12.50;1.00;;;;;;5040612;28;20040;-61
2023/01/02 11:34:39;;;;;;;49.80;35.03;;;12.50;1.00;;;;;;5038378;28;20036;-61
2023/01/02 11:37:15;;;;;;;52.03;35.35;;;12.50;1.00;;;;;;5037909;28;20104;-60
2023/01/02 11:39:55;;;;;;;55.80;36.78;;;12.60;1.00;;;;;;5033101;28;20466;-61
2023/01/02 11:45:19;;;;;;;50.55;35.20;;;12.50;1.00;;;;;;5033566;28;20063;-61
2023/01/02 11:48:14;;;;;;;54.17;37.03;;;12.50;1.00;;;;;;5013793;28;20025;-61
2023/01/02 11:50:43;;;;;;;55.88;37.25;;;12.50;1.00;;;;;;5031797;28;20033;-61
2023/01/02 11:53:12;;;;;;;57.55;36.42;;;12.50;1.00;;;;;;5029333;28;20026;-61
2023/01/02 11:55:45;;;;;;;57.50;36.38;;;12.50;1.00;;;;;;5014013;28;20416;-61
2023/01/02 11:58:30;;;;;;;54.90;35.58;;;12.50;1.00;;;;;;5013816;28;20049;-60
2023/01/02 12:01:02;;;;;;;;;;;12.50;1.00;;;;;;5030872;28;20029;-60
2023/01/02 12:03:31;;;;;;;55.55;36.17;;;12.50;1.00;;;;;;5048351;28;19913;-60
2023/01/02 12:06:19;;;;;;;55.72;37.35;;;12.50;1.00;;;;;;5033542;28;20048;-60
2023/01/02 12:09:10;;;;;;;51.47;34.80;;;12.60;1.00;;;;;;5030685;28;20037;-60
2023/01/02 12:11:41;;;;;;;54.72;36.85;;;12.50;1.00;;;;;;5013987;28;20464;-60
2023/01/02 12:14:23;;;;;;;54.97;37.38;;;12.60;1.00;;;;;;5012754;28;20034;-60
2023/01/02 12:16:58;;;;;;;55.78;36.00;;;12.60;1.00;;;;;;5013453;28;20391;-60
2023/01/02 12:19:25;;;;;;;51.65;34.67;;;12.50;1.00;;;;;;5031268;28;20033;-60
2023/01/02 12:22:12;;;;;;;52.40;35.42;;;12.60;1.00;;;;;;5033309;28;20025;-60
2023/01/02 12:25:04;;;;;;;49.17;34.42;;;12.50;1.00;;;;;;5013286;28;20041;-60
2023/01/02 12:27:44;;;;;;;45.88;32.05;;;12.50;1.00;;;;;;5017129;28;20030;-60
2023/01/02 12:30:15;;;;;;;55.90;35.42;;;12.50;1.00;;;;;;5033074;28;20033;-60
2023/01/02 12:33:18;;;;;;;50.65;34.10;;;12.60;1.00;;;;;;5031963;28;20136;-60
2023/01/02 12:36:29;;;;;;;54.03;35.17;;;12.60;1.00;;;;;;5013235;28;20128;-60
2023/01/02 12:39:18;;;;;;;50.55;33.38;;;12.50;1.00;;;;;;5003578;28;20400;-60
2023/01/02 12:42:05;;;;;;;49.78;34.97;;;12.50;1.00;;;;;;5013147;28;20159;-60
2023/01/02 12:44:48;;;;;;;47.22;33.63;;;12.60;1.00;;;;;;5014110;28;20056;-60
2023/01/02 12:47:23;;;;;;;50.55;34.75;;;12.60;1.00;;;;;;5012239;28;20081;-60
2023/01/02 12:50:19;;;;;;;49.55;33.97;;;12.60;1.00;;;;;;5020671;28;20026;-62
2023/01/02 12:53:26;;;;;;;47.80;33.63;;;12.60;1.00;;;;;;5032244;28;20110;-60
2023/01/02 12:56:37;;;;;;;48.47;33.38;;;12.50;1.00;;;;;;5014393;28;20121;-60
2023/01/02 12:59:36;;;;;;;43.28;31.40;;;12.60;1.00;;;;;;5010251;28;20029;-60
2023/01/02 13:02:35;;;;;;;45.78;31.33;;;12.50;1.00;;;;;;5010443;28;20054;-60
2023/01/02 13:05:10;;;;;;;46.15;31.88;;;12.40;1.00;;;;;;5018125;28;20053;-60
2023/01/02 13:07:57;;;;;;;44.40;31.63;;;12.50;1.00;;;;;;5031656;28;20432;-61
2023/01/02 13:10:27;;;;;;;46.92;32.17;;;12.60;1.00;;;;;;5030091;28;20422;-60